Time;durP1;ratioP1;P1;durP2;ratioP2;P2;SDS_P1;SDS_P2;PMS_P1;PMS_P2;Temp;Humidity;BMP_temperature;BMP_pressure;BME280_temperature;BME280_humidity;BME280_pressure;Samples;Min_cycle;Max_cycle;Signal;HPM_P1;HPM_P2
2022/11/09 00:01:28;;;;;;;33.58;14.65;;;;;;;;;;4972566;28;20336;-62
2022/11/09 00:03:58;;;;;;;31.73;15.15;;;;;;;;;;4971419;28;20340;-62
2022/11/09 00:06:25;;;;;;;32.10;14.43;;;;;;;;;;4891515;28;20512;-63
2022/11/09 00:08:51;;;;;;;29.50;14.55;;;;;;;;;;4951932;28;20048;-62
2022/11/09 00:11:17;;;;;;;35.28;14.57;;;;;;;;;;4951545;28;20033;-62
2022/11/09 00:13:44;;;;;;;26.50;13.63;;;;;;;;;;4952048;28;20364;-62
2022/11/09 00:16:16;;;;;;;28.23;13.63;;;;;;;;;;4951726;28;20392;-62
2022/11/09 00:18:48;;;;;;;30.55;13.90;;;;;;;;;;4952577;28;20478;-62
2022/11/09 00:21:17;;;;;;;30.73;15.07;;;;;;;;;;4951479;28;20436;-64
2022/11/09 00:23:43;;;;;;;;;;;;;;;;;;4952412;28;20483;-62
2022/11/09 00:26:11;;;;;;;29.95;13.85;;;;;;;;;;4951524;28;20407;-62
2022/11/09 00:28:37;;;;;;;30.88;14.80;;;;;;;;;;4951598;28;20058;-62
2022/11/09 00:31:06;;;;;;;28.90;13.30;;;;;;;;;;4951172;28;20193;-62
2022/11/09 00:33:33;;;;;;;27.55;13.25;;;;;;;;;;4952734;28;20471;-62
2022/11/09 00:36:06;;;;;;;27.25;12.90;;;;;;;;;;4951481;28;20496;-62
2022/11/09 00:38:32;;;;;;;25.83;13.40;;;;;;;;;;4949690;28;20332;-62
2022/11/09 00:41:04;;;;;;;31.05;13.43;;;;;;;;;;4951165;28;20325;-62
2022/11/09 00:43:30;;;;;;;30.80;14.45;;;;;;;;;;4951962;28;20530;-62
2022/11/09 00:45:56;;;;;;;26.75;13.00;;;;;;;;;;4951521;28;20403;-62
2022/11/09 00:48:21;;;;;;;27.45;13.30;;;;;;;;;;4951285;28;20384;-62
2022/11/09 00:50:55;;;;;;;28.05;13.27;;;;;;;;;;4949818;28;20413;-62
2022/11/09 00:53:22;;;;;;;25.38;12.85;;;;;;;;;;4950842;28;20389;-62
2022/11/09 00:56:06;;;;;;;25.73;12.55;;;;;;;;;;4952264;28;20428;-62
2022/11/09 00:58:34;;;;;;;21.08;11.23;;;;;;;;;;4950990;28;20546;-62
2022/11/09 01:01:13;;;;;;;24.05;12.65;;;;;;;;;;4949275;28;20381;-62
2022/11/09 01:03:39;;;;;;;28.75;13.07;;;;;;;;;;4610695;28;10001933;-62
2022/11/09 01:06:05;;;;;;;26.80;12.70;;;;;;;;;;4932072;28;20433;-62
2022/11/09 01:08:33;;;;;;;24.75;12.30;;;;;;;;;;4931624;28;20030;-62
2022/11/09 01:11:05;;;;;;;26.23;12.50;;;;;;;;;;4931216;28;20329;-63
2022/11/09 01:13:31;;;;;;;23.80;11.68;;;;;;;;;;4932431;28;20345;-63
2022/11/09 01:15:56;;;;;;;24.88;12.40;;;;;;;;;;4931469;28;20369;-62
2022/11/09 01:18:22;;;;;;;26.10;13.95;;;;;;;;;;4932066;28;20500;-62
2022/11/09 01:20:49;;;;;;;24.13;12.88;;;;;;;;;;4931482;28;20473;-62
2022/11/09 01:23:17;;;;;;;23.10;11.63;;;;;;;;;;4931304;28;20034;-62
2022/11/09 01:25:43;;;;;;;25.90;12.17;;;;;;;;;;4932216;28;20348;-62
2022/11/09 01:28:10;;;;;;;31.60;12.70;;;;;;;;;;4930924;28;20133;-62
2022/11/09 01:30:39;;;;;;;21.40;12.23;;;;;;;;;;4931563;28;20397;-62
2022/11/09 01:33:08;;;;;;;30.75;12.85;;;;;;;;;;4931164;28;20436;-62
2022/11/09 01:35:35;;;;;;;30.10;12.27;;;;;;;;;;4931625;28;20445;-62
2022/11/09 01:38:02;;;;;;;26.33;11.43;;;;;;;;;;4931151;28;20026;-62
2022/11/09 01:40:28;;;;;;;23.42;12.15;;;;;;;;;;4931765;28;20499;-62
2022/11/09 01:42:54;;;;;;;23.77;11.48;;;;;;;;;;4930307;28;20444;-62
2022/11/09 01:45:22;;;;;;;22.90;12.23;;;;;;;;;;4930722;28;20026;-62
2022/11/09 01:48:13;;;;;;;22.92;12.40;;;;;;;;;;4931199;28;20406;-62
2022/11/09 01:50:47;;;;;;;26.17;10.88;;;;;;;;;;4929502;28;20132;-62
2022/11/09 01:53:19;;;;;;;24.95;12.25;;;;;;;;;;4928950;28;20349;-62
2022/11/09 01:55:49;;;;;;;20.55;11.10;;;;;;;;;;4928641;28;20448;-62
2022/11/09 01:58:46;;;;;;;27.90;12.13;;;;;;;;;;4930948;28;20413;-62
2022/11/09 02:01:14;;;;;;;24.75;12.07;;;;;;;;;;4930485;28;20085;-62
2022/11/09 02:03:47;;;;;;;26.40;12.00;;;;;;;;;;4895280;28;20341;-63
2022/11/09 02:06:15;;;;;;;24.27;12.30;;;;;;;;;;4929049;28;20704;-63
2022/11/09 02:08:42;;;;;;;24.83;11.00;;;;;;;;;;4930836;28;20498;-63
2022/11/09 02:11:19;;;;;;;23.10;11.90;;;;;;;;;;4930536;28;20030;-63
2022/11/09 02:13:50;;;;;;;22.45;11.23;;;;;;;;;;4931520;28;20030;-63
2022/11/09 02:16:17;;;;;;;26.70;12.25;;;;;;;;;;4928822;28;20460;-63
2022/11/09 02:18:55;;;;;;;21.52;11.10;;;;;;;;;;4930463;28;20333;-63
2022/11/09 02:21:24;;;;;;;21.07;10.43;;;;;;;;;;4931347;28;20381;-63
2022/11/09 02:23:50;;;;;;;26.02;12.20;;;;;;;;;;4930422;28;20601;-64
2022/11/09 02:26:41;;;;;;;26.17;11.48;;;;;;;;;;4930489;28;20360;-63
2022/11/09 02:29:10;;;;;;;24.77;12.40;;;;;;;;;;4928372;28;20124;-63
2022/11/09 02:31:45;;;;;;;30.10;13.20;;;;;;;;;;4928694;28;20381;-63
2022/11/09 02:34:15;;;;;;;23.33;11.70;;;;;;;;;;4928829;28;20097;-63
2022/11/09 02:36:42;;;;;;;23.38;12.25;;;;;;;;;;4929066;28;20337;-63
2022/11/09 02:39:09;;;;;;;21.35;11.55;;;;;;;;;;4930687;28;20416;-63
2022/11/09 02:41:46;;;;;;;23.65;12.02;;;;;;;;;;4928126;28;20417;-63
2022/11/09 02:44:14;;;;;;;27.50;12.32;;;;;;;;;;4930090;28;20372;-63
2022/11/09 02:46:40;;;;;;;24.05;11.93;;;;;;;;;;4929468;28;20508;-63
2022/11/09 02:49:05;;;;;;;24.60;13.60;;;;;;;;;;4930070;28;20452;-63
2022/11/09 02:51:31;;;;;;;26.65;13.48;;;;;;;;;;4930375;28;20027;-63
2022/11/09 02:53:56;;;;;;;25.80;12.38;;;;;;;;;;4931605;28;20438;-63
2022/11/09 02:56:22;;;;;;;26.00;13.07;;;;;;;;;;4930042;28;20535;-63
2022/11/09 02:58:47;;;;;;;27.15;13.57;;;;;;;;;;4930558;28;20306;-63
2022/11/09 03:01:13;;;;;;;26.70;12.27;;;;;;;;;;4931465;28;20453;-63
2022/11/09 03:03:39;;;;;;;22.17;12.90;;;;;;;;;;4930147;28;20421;-63
2022/11/09 03:06:04;;;;;;;24.95;12.35;;;;;;;;;;4928627;28;20396;-63
2022/11/09 03:08:30;;;;;;;23.35;12.25;;;;;;;;;;4929728;28;20456;-63
2022/11/09 03:10:57;;;;;;;19.98;11.25;;;;;;;;;;4930214;28;20096;-63
2022/11/09 03:13:23;;;;;;;24.85;12.27;;;;;;;;;;4930428;28;20409;-63
2022/11/09 03:15:48;;;;;;;22.45;11.52;;;;;;;;;;4929811;28;20026;-62
2022/11/09 03:18:14;;;;;;;26.50;12.55;;;;;;;;;;4932212;28;20448;-63
2022/11/09 03:20:39;;;;;;;23.83;12.27;;;;;;;;;;4929666;28;20384;-64
2022/11/09 03:23:05;;;;;;;26.63;13.23;;;;;;;;;;4929483;28;20337;-63
2022/11/09 03:25:30;;;;;;;24.42;12.68;;;;;;;;;;4930354;28;20279;-63
2022/11/09 03:28:01;;;;;;;22.63;12.25;;;;;;;;;;4929783;28;20314;-63
2022/11/09 03:30:26;;;;;;;26.00;12.13;;;;;;;;;;4934644;28;20456;-62
2022/11/09 03:33:00;;;;;;;23.67;12.32;;;;;;;;;;4934119;28;20440;-63
2022/11/09 03:35:27;;;;;;;26.08;12.07;;;;;;;;;;4933346;28;20042;-63
2022/11/09 03:37:53;;;;;;;26.92;12.90;;;;;;;;;;4934141;28;20441;-63
2022/11/09 03:40:19;;;;;;;28.75;12.90;;;;;;;;;;4933084;28;20479;-63
2022/11/09 03:42:46;;;;;;;26.02;11.80;;;;;;;;;;4932429;28;20372;-63
2022/11/09 03:45:13;;;;;;;23.50;12.77;;;;;;;;;;4933241;28;20026;-63
2022/11/09 03:47:46;;;;;;;26.67;13.18;;;;;;;;;;4932707;28;20463;-63
2022/11/09 03:50:14;;;;;;;27.40;12.63;;;;;;;;;;4934643;28;20425;-63
2022/11/09 03:52:44;;;;;;;23.40;12.18;;;;;;;;;;4933101;28;20408;-63
2022/11/09 03:55:10;;;;;;;21.30;12.35;;;;;;;;;;4932887;28;20459;-62
2022/11/09 03:57:35;;;;;;;23.55;11.80;;;;;;;;;;4933087;28;20418;-64
2022/11/09 04:00:01;;;;;;;28.33;12.27;;;;;;;;;;4932825;28;20452;-63
2022/11/09 04:02:26;;;;;;;24.20;12.07;;;;;;;;;;4932899;28;20034;-62
2022/11/09 04:04:52;;;;;;;22.38;10.82;;;;;;;;;;4933143;28;20448;-63
2022/11/09 04:07:17;;;;;;;25.35;11.32;;;;;;;;;;4933242;28;20448;-63
2022/11/09 04:09:43;;;;;;;19.48;10.05;;;;;;;;;;4933365;28;20064;-63
2022/11/09 04:12:08;;;;;;;21.98;10.90;;;;;;;;;;4932735;28;20425;-63
2022/11/09 04:14:34;;;;;;;21.05;10.85;;;;;;;;;;4932629;28;20361;-63
2022/11/09 04:16:59;;;;;;;20.08;10.35;;;;;;;;;;4932828;28;20038;-63
2022/11/09 04:19:25;;;;;;;19.02;11.32;;;;;;;;;;4932394;28;20464;-63
2022/11/09 04:21:50;;;;;;;20.80;11.13;;;;;;;;;;4932969;28;20515;-63
2022/11/09 04:24:16;;;;;;;22.95;11.10;;;;;;;;;;4932477;28;20341;-63
2022/11/09 04:26:41;;;;;;;21.77;10.68;;;;;;;;;;4933453;28;20451;-64
2022/11/09 04:29:07;;;;;;;19.83;10.00;;;;;;;;;;4932403;28;20375;-63
2022/11/09 04:31:32;;;;;;;22.98;11.65;;;;;;;;;;4932082;28;20361;-63
2022/11/09 04:33:58;;;;;;;18.80;10.55;;;;;;;;;;4932485;28;20338;-63
2022/11/09 04:36:23;;;;;;;19.20;9.95;;;;;;;;;;4932516;28;20456;-63
2022/11/09 04:38:49;;;;;;;21.40;10.60;;;;;;;;;;4932130;28;20026;-63
2022/11/09 04:41:15;;;;;;;20.13;11.23;;;;;;;;;;4932425;28;20469;-64
2022/11/09 04:43:41;;;;;;;19.30;10.35;;;;;;;;;;4931752;28;20566;-63
2022/11/09 04:46:06;;;;;;;18.55;10.48;;;;;;;;;;4932037;28;20361;-63
2022/11/09 04:48:32;;;;;;;20.50;11.07;;;;;;;;;;4932036;28;20100;-63
2022/11/09 04:51:05;;;;;;;22.45;11.88;;;;;;;;;;4932033;28;20518;-63
2022/11/09 04:53:31;;;;;;;16.85;9.88;;;;;;;;;;4932223;28;20364;-62
2022/11/09 04:55:57;;;;;;;19.73;10.30;;;;;;;;;;4932506;28;20655;-63
2022/11/09 04:58:23;;;;;;;17.92;10.30;;;;;;;;;;4931793;28;20408;-63
2022/11/09 05:00:48;;;;;;;18.33;10.43;;;;;;;;;;4932325;28;20301;-63
2022/11/09 05:03:14;;;;;;;20.50;10.07;;;;;;;;;;4932310;28;20417;-63
2022/11/09 05:05:40;;;;;;;20.23;10.82;;;;;;;;;;4931940;28;20026;-63
2022/11/09 05:08:06;;;;;;;18.73;9.50;;;;;;;;;;4931676;28;20357;-64
2022/11/09 05:10:32;;;;;;;16.98;9.70;;;;;;;;;;4931960;28;20511;-63
2022/11/09 05:13:04;;;;;;;19.33;9.77;;;;;;;;;;4931860;28;20035;-63
2022/11/09 05:15:31;;;;;;;17.65;9.45;;;;;;;;;;4932578;28;20417;-63
2022/11/09 05:17:57;;;;;;;19.20;10.27;;;;;;;;;;4931580;28;20351;-63
2022/11/09 05:20:24;;;;;;;19.55;9.77;;;;;;;;;;4932407;28;20380;-63
2022/11/09 05:25:34;;;;;;;18.88;9.18;;;;;;;;;;4932756;28;20117;-63
2022/11/09 05:28:00;;;;;;;18.73;9.35;;;;;;;;;;4931371;28;20030;-63
2022/11/09 05:30:25;;;;;;;18.63;9.23;;;;;;;;;;4931290;28;20066;-62
2022/11/09 05:32:51;;;;;;;16.35;8.95;;;;;;;;;;4931297;28;20341;-63
2022/11/09 05:35:16;;;;;;;18.90;10.75;;;;;;;;;;4931115;28;20442;-63
2022/11/09 05:37:47;;;;;;;20.77;10.77;;;;;;;;;;4931051;28;20310;-64
2022/11/09 05:40:13;;;;;;;20.05;10.30;;;;;;;;;;4931275;28;20437;-63
2022/11/09 05:42:40;;;;;;;21.80;10.35;;;;;;;;;;4930470;28;20380;-63
2022/11/09 05:45:11;;;;;;;20.15;10.65;;;;;;;;;;4931411;28;20360;-62
2022/11/09 05:47:41;;;;;;;20.20;10.65;;;;;;;;;;4931216;28;20056;-66
2022/11/09 05:50:11;;;;;;;23.30;11.10;;;;;;;;;;4930916;28;20444;-63
2022/11/09 05:52:37;;;;;;;21.13;10.35;;;;;;;;;;4930362;28;20448;-63
2022/11/09 05:55:03;;;;;;;23.77;11.60;;;;;;;;;;4930889;28;20417;-63
2022/11/09 05:57:29;;;;;;;20.33;9.90;;;;;;;;;;4930693;28;20420;-63
2022/11/09 05:59:55;;;;;;;25.75;11.77;;;;;;;;;;4932367;28;20424;-63
2022/11/09 06:02:21;;;;;;;22.63;10.10;;;;;;;;;;4930342;28;20318;-62
2022/11/09 06:04:46;;;;;;;23.80;11.20;;;;;;;;;;4930635;28;20026;-63
2022/11/09 06:07:12;;;;;;;26.38;10.95;;;;;;;;;;4930655;28;20414;-63
2022/11/09 06:09:37;;;;;;;26.10;12.32;;;;;;;;;;4930747;28;20096;-64
2022/11/09 06:12:03;;;;;;;26.73;11.02;;;;;;;;;;4930427;28;20345;-63
2022/11/09 06:14:28;;;;;;;28.98;11.20;;;;;;;;;;4931165;28;20356;-62
2022/11/09 06:16:54;;;;;;;24.90;9.80;;;;;;;;;;4930675;28;20058;-63
2022/11/09 06:19:19;;;;;;;26.50;11.13;;;;;;;;;;4930281;28;20441;-63
2022/11/09 06:21:45;;;;;;;22.00;10.32;;;;;;;;;;4931220;28;20437;-63
2022/11/09 06:24:10;;;;;;;20.73;9.95;;;;;;;;;;4930706;28;20322;-63
2022/11/09 06:26:36;;;;;;;27.25;9.77;;;;;;;;;;4930408;28;20346;-63
2022/11/09 06:29:02;;;;;;;22.77;11.18;;;;;;;;;;4929968;28;20330;-63
2022/11/09 06:31:28;;;;;;;23.33;10.65;;;;;;;;;;4930241;28;20440;-63
2022/11/09 06:33:53;;;;;;;21.77;10.90;;;;;;;;;;4930938;28;20410;-62
2022/11/09 06:36:19;;;;;;;25.90;11.45;;;;;;;;;;4929717;28;20026;-62
2022/11/09 06:38:49;;;;;;;21.92;10.15;;;;;;;;;;4930846;28;20358;-63
2022/11/09 06:41:15;;;;;;;25.92;11.52;;;;;;;;;;4930065;28;20026;-63
2022/11/09 06:43:41;;;;;;;23.88;10.52;;;;;;;;;;4929702;28;20054;-63
2022/11/09 06:46:06;;;;;;;24.13;10.55;;;;;;;;;;4930266;28;20429;-63
2022/11/09 06:48:32;;;;;;;22.60;10.45;;;;;;;;;;4930131;28;20413;-63
2022/11/09 06:51:03;;;;;;;24.83;10.55;;;;;;;;;;4929840;28;20456;-63
2022/11/09 06:53:29;;;;;;;29.60;10.88;;;;;;;;;;4930273;28;20102;-63
2022/11/09 06:56:03;;;;;;;19.83;9.50;;;;;;;;;;4930020;28;20401;-63
2022/11/09 06:58:30;;;;;;;28.75;10.68;;;;;;;;;;4929307;28;20038;-63
2022/11/09 07:00:55;;;;;;;19.92;9.38;;;;;;;;;;4930403;28;20422;-63
2022/11/09 07:03:21;;;;;;;29.23;10.98;;;;;;;;;;4930410;28;20419;-63
2022/11/09 07:05:49;;;;;;;32.45;11.82;;;;;;;;;;4933496;28;20579;-63
2022/11/09 07:08:16;;;;;;;23.88;10.07;;;;;;;;;;4933344;28;20200;-63
2022/11/09 07:10:43;;;;;;;25.20;10.45;;;;;;;;;;4933606;28;20133;-62
2022/11/09 07:13:09;;;;;;;25.15;10.15;;;;;;;;;;4933883;28;20030;-63
2022/11/09 07:15:36;;;;;;;27.15;9.02;;;;;;;;;;4933688;28;20034;-62
2022/11/09 07:18:07;;;;;;;22.73;10.27;;;;;;;;;;4934520;28;20352;-63
2022/11/09 07:20:32;;;;;;;19.67;9.88;;;;;;;;;;4934382;28;20125;-62
2022/11/09 07:22:58;;;;;;;23.45;11.35;;;;;;;;;;4933245;28;20439;-63
2022/11/09 07:25:26;;;;;;;23.70;10.32;;;;;;;;;;4933319;28;20436;-63
2022/11/09 07:27:51;;;;;;;22.52;9.05;;;;;;;;;;4933502;28;20353;-62
2022/11/09 07:30:17;;;;;;;21.95;9.63;;;;;;;;;;4932999;28;20105;-62
2022/11/09 07:32:43;;;;;;;22.80;9.55;;;;;;;;;;4933589;28;20030;-63
2022/11/09 07:35:08;;;;;;;23.90;8.80;;;;;;;;;;4932840;28;20464;-62
2022/11/09 07:37:35;;;;;;;23.83;9.57;;;;;;;;;;4933335;28;20325;-62
2022/11/09 07:40:00;;;;;;;22.35;8.68;;;;;;;;;;4933018;28;20092;-63
2022/11/09 07:42:26;;;;;;;19.35;8.80;;;;;;;;;;4932620;28;20492;-62
2022/11/09 07:44:52;;;;;;;21.40;8.88;;;;;;;;;;4932799;28;20417;-63
2022/11/09 07:47:19;;;;;;;22.92;9.68;;;;;;;;;;4856905;28;20449;-62
2022/11/09 07:49:45;;;;;;;19.58;9.20;;;;;;;;;;4932961;28;20322;-62
2022/11/09 07:52:11;;;;;;;21.42;9.07;;;;;;;;;;4933375;28;20349;-63
2022/11/09 07:54:38;;;;;;;20.08;9.05;;;;;;;;;;4932605;28;20318;-62
2022/11/09 07:57:04;;;;;;;19.48;8.52;;;;;;;;;;4905656;28;20341;-64
2022/11/09 07:59:30;;;;;;;24.25;8.32;;;;;;;;;;4917121;28;20466;-63
2022/11/09 08:01:56;;;;;;;21.55;9.20;;;;;;;;;;4913500;28;20093;-62
2022/11/09 08:04:22;;;;;;;19.42;8.93;;;;;;;;;;4912419;28;20418;-62
2022/11/09 08:06:51;;;;;;;19.20;8.32;;;;;;;;;;4913460;28;20354;-62
2022/11/09 08:09:18;;;;;;;20.15;9.63;;;;;;;;;;4914193;28;20368;-63
2022/11/09 08:11:43;;;;;;;21.77;8.73;;;;;;;;;;4913786;28;20414;-63
2022/11/09 08:14:09;;;;;;;19.27;8.75;;;;;;;;;;4912761;28;20461;-63
2022/11/09 08:16:34;;;;;;;19.67;8.05;;;;;;;;;;4913577;28;20478;-63
2022/11/09 08:19:00;;;;;;;16.65;8.70;;;;;;;;;;4912112;28;20396;-63
2022/11/09 08:21:25;;;;;;;21.98;8.57;;;;;;;;;;4913009;28;20325;-62
2022/11/09 08:23:51;;;;;;;19.60;9.18;;;;;;;;;;4913072;28;20377;-62
2022/11/09 08:26:16;;;;;;;20.73;8.65;;;;;;;;;;4913578;28;20338;-63
2022/11/09 08:28:42;;;;;;;18.30;8.27;;;;;;;;;;4913970;28;20027;-63
2022/11/09 08:31:08;;;;;;;17.92;7.78;;;;;;;;;;4912892;28;20122;-62
2022/11/09 08:33:40;;;;;;;19.42;8.07;;;;;;;;;;4913064;28;20026;-63
2022/11/09 08:36:11;;;;;;;16.95;8.45;;;;;;;;;;4914289;28;20338;-62
2022/11/09 08:38:37;;;;;;;31.88;16.20;;;;;;;;;;4912812;28;20540;-63
2022/11/09 08:41:03;;;;;;;19.27;9.38;;;;;;;;;;4912884;28;20456;-62
2022/11/09 08:43:29;;;;;;;28.20;14.38;;;;;;;;;;4912686;28;20480;-63
2022/11/09 08:45:54;;;;;;;27.15;11.18;;;;;;;;;;4912612;28;20469;-63
2022/11/09 08:48:20;;;;;;;129.63;16.95;;;;;;;;;;4913172;28;20460;-63
2022/11/09 08:50:52;;;;;;;154.90;16.52;;;;;;;;;;4912557;28;20354;-63
2022/11/09 08:53:17;;;;;;;167.63;17.13;;;;;;;;;;4913070;28;20426;-64
2022/11/09 08:55:43;;;;;;;146.98;26.02;;;;;;;;;;4913524;28;20489;-63
2022/11/09 08:58:09;;;;;;;87.25;15.55;;;;;;;;;;4912395;28;20031;-62
2022/11/09 09:00:35;;;;;;;102.53;21.75;;;;;;;;;;4926911;28;20403;-62
2022/11/09 09:03:05;;;;;;;69.78;16.13;;;;;;;;;;4912969;28;20057;-62
2022/11/09 09:05:32;;;;;;;39.03;13.75;;;;;;;;;;4912443;28;20484;-63
2022/11/09 09:08:02;;;;;;;109.47;51.70;;;;;;;;;;4912604;28;20366;-62
2022/11/09 09:10:28;;;;;;;54.22;22.17;;;;;;;;;;4912463;28;20338;-62
2022/11/09 09:12:54;;;;;;;47.65;16.40;;;;;;;;;;4926852;28;20054;-62
2022/11/09 09:15:20;;;;;;;31.85;13.77;;;;;;;;;;4912746;28;20362;-62
2022/11/09 09:17:46;;;;;;;24.83;12.73;;;;;;;;;;4915443;28;20357;-62
2022/11/09 09:20:12;;;;;;;33.22;12.80;;;;;;;;;;4930854;28;20350;-62
2022/11/09 09:22:38;;;;;;;74.72;63.13;;;;;;;;;;4931921;28;20425;-63
2022/11/09 09:25:05;;;;;;;225.23;139.82;;;;;;;;;;4931123;28;20035;-62
2022/11/09 09:27:30;;;;;;;75.05;37.33;;;;;;;;;;4930468;28;20104;-62
2022/11/09 09:29:57;;;;;;;46.38;18.38;;;;;;;;;;4930916;28;20034;-62
2022/11/09 09:32:23;;;;;;;29.52;13.68;;;;;;;;;;4931291;28;20413;-62
2022/11/09 09:34:48;;;;;;;24.77;13.10;;;;;;;;;;4931712;28;20528;-62
2022/11/09 09:37:16;;;;;;;40.20;14.70;;;;;;;;;;4931278;28;20397;-61
2022/11/09 09:39:42;;;;;;;31.23;13.18;;;;;;;;;;4930818;28;20548;-63
2022/11/09 09:42:16;;;;;;;27.58;11.75;;;;;;;;;;4930286;28;20368;-64
2022/11/09 09:45:14;;;;;;;28.17;12.25;;;;;;;;;;4927276;28;20046;-63
2022/11/09 09:47:52;;;;;;;17.60;9.93;;;;;;;;;;4929125;28;20402;-64
2022/11/09 09:50:23;;;;;;;24.10;11.48;;;;;;;;;;4930462;28;20396;-63
2022/11/09 09:52:51;;;;;;;17.83;9.38;;;;;;;;;;4930392;28;20049;-63
2022/11/09 09:55:28;;;;;;;17.13;9.68;;;;;;;;;;4928311;28;20473;-64
2022/11/09 09:58:01;;;;;;;18.13;8.70;;;;;;;;;;4928371;28;20445;-63
2022/11/09 10:00:27;;;;;;;25.60;9.68;;;;;;;;;;4931206;28;20451;-63
2022/11/09 10:02:54;;;;;;;19.52;9.02;;;;;;;;;;4931371;28;20456;-64
2022/11/09 10:05:28;;;;;;;27.10;10.05;;;;;;;;;;4928903;28;20474;-64
2022/11/09 10:08:41;;;;;;;18.45;9.23;;;;;;;;;;4929571;28;20348;-64
2022/11/09 10:11:17;;;;;;;16.63;9.13;;;;;;;;;;4928920;28;20595;-63
2022/11/09 10:14:38;;;;;;;15.98;8.48;;;;;;;;;;4930161;28;20703;-64
2022/11/09 10:17:33;;;;;;;18.15;8.85;;;;;;;;;;4928741;28;20103;-63
2022/11/09 10:20:08;;;;;;;15.13;7.43;;;;;;;;;;4929072;28;20453;-64
2022/11/09 10:22:45;;;;;;;18.17;9.48;;;;;;;;;;4930010;28;20128;-64
2022/11/09 10:25:22;;;;;;;23.08;9.57;;;;;;;;;;4930252;28;20473;-64
2022/11/09 10:27:57;;;;;;;16.33;8.55;;;;;;;;;;4928164;28;20445;-64
2022/11/09 10:30:25;;;;;;;19.05;8.73;;;;;;;;;;4929807;28;20430;-64
2022/11/09 10:33:00;;;;;;;19.05;8.90;;;;;;;;;;4907318;28;20377;-64
2022/11/09 10:35:33;;;;;;;17.02;8.02;;;;;;;;;;4929849;28;20104;-63
2022/11/09 10:37:58;;;;;;;18.13;8.43;;;;;;;;;;4929855;28;20460;-64
2022/11/09 10:40:30;;;;;;;16.08;7.35;;;;;;;;;;4929810;28;20418;-64
2022/11/09 10:43:04;;;;;;;13.82;8.82;;;;;;;;;;4928013;28;20116;-64
2022/11/09 10:45:43;;;;;;;13.43;7.82;;;;;;;;;;4910107;28;20546;-64
2022/11/09 10:48:12;;;;;;;14.63;7.90;;;;;;;;;;4959214;28;20325;-63
2022/11/09 10:50:53;;;;;;;16.00;7.82;;;;;;;;;;4911813;28;20157;-64
2022/11/09 10:53:21;;;;;;;16.02;8.30;;;;;;;;;;4931306;28;20057;-64
2022/11/09 10:56:19;;;;;;;15.75;7.72;;;;;;;;;;4929944;28;20515;-64
2022/11/09 10:58:52;;;;;;;17.63;7.35;;;;;;;;;;4929918;28;20094;-64
2022/11/09 11:01:23;;;;;;;14.18;7.72;;;;;;;;;;4930810;28;20468;-64
2022/11/09 11:03:54;;;;;;;15.00;7.40;;;;;;;;;;4929757;28;20497;-64
2022/11/09 11:06:20;;;;;;;12.73;7.78;;;;;;;;;;4929907;28;20333;-64
2022/11/09 11:09:06;;;;;;;10.75;7.22;;;;;;;;;;4930759;28;20345;-64
2022/11/09 11:11:34;;;;;;;13.27;6.55;;;;;;;;;;4925811;28;20463;-64
2022/11/09 11:14:15;;;;;;;15.50;7.50;;;;;;;;;;4930194;28;20109;-64
2022/11/09 11:16:42;;;;;;;15.05;6.70;;;;;;;;;;4930559;28;20433;-64
2022/11/09 11:19:30;;;;;;;12.88;6.82;;;;;;;;;;4928652;28;20471;-64
2022/11/09 11:22:10;;;;;;;12.75;6.93;;;;;;;;;;4929634;28;20511;-63
2022/11/09 11:25:15;;;;;;;14.73;6.68;;;;;;;;;;4929799;28;20026;-64
2022/11/09 11:27:57;;;;;;;13.70;6.80;;;;;;;;;;4929879;28;20583;-64
2022/11/09 11:30:30;;;;;;;12.93;6.68;;;;;;;;;;4929421;28;20523;-64
2022/11/09 11:32:57;;;;;;;10.88;5.90;;;;;;;;;;4929803;28;20476;-63
2022/11/09 11:35:56;;;;;;;11.77;6.15;;;;;;;;;;4929067;28;20456;-64
2022/11/09 11:38:40;;;;;;;12.13;6.07;;;;;;;;;;4929201;28;20436;-64
2022/11/09 11:41:30;;;;;;;14.02;7.22;;;;;;;;;;4927848;28;20030;-64
2022/11/09 11:44:20;;;;;;;11.25;6.15;;;;;;;;;;4930026;28;20101;-64
2022/11/09 11:46:59;;;;;;;10.55;6.07;;;;;;;;;;4929269;28;20464;-63
2022/11/09 11:49:46;;;;;;;;;;;;;;;;;;4929215;28;20520;-64
2022/11/09 11:53:06;;;;;;;9.80;5.60;;;;;;;;;;4932971;28;20216;-65
2022/11/09 11:55:50;;;;;;;10.25;6.15;;;;;;;;;;4933152;28;20441;-64
2022/11/09 11:58:39;;;;;;;10.15;6.25;;;;;;;;;;4932890;28;20418;-64
2022/11/09 12:01:49;;;;;;;11.55;6.40;;;;;;;;;;4932443;28;20430;-64
2022/11/09 12:04:40;;;;;;;9.82;6.10;;;;;;;;;;4910899;28;20528;-64
2022/11/09 12:07:44;;;;;;;11.32;5.65;;;;;;;;;;4931401;28;20401;-63
2022/11/09 12:10:51;;;;;;;10.85;6.07;;;;;;;;;;4933067;28;20038;-64
2022/11/09 12:13:50;;;;;;;11.35;6.40;;;;;;;;;;4932900;28;20417;-64
2022/11/09 12:16:53;;;;;;;11.10;6.80;;;;;;;;;;4932822;28;20440;-64
2022/11/09 12:20:03;;;;;;;9.55;5.85;;;;;;;;;;4933042;28;20507;-64
2022/11/09 12:22:36;;;;;;;9.73;5.05;;;;;;;;;;4932906;28;20119;-64
2022/11/09 12:25:34;;;;;;;12.82;5.80;;;;;;;;;;4932909;28;20516;-64
2022/11/09 12:28:13;;;;;;;15.13;6.18;;;;;;;;;;4932480;28;20395;-64
2022/11/09 12:30:53;;;;;;;9.77;5.63;;;;;;;;;;4932734;28;20503;-64
2022/11/09 12:33:39;;;;;;;9.98;5.63;;;;;;;;;;4931047;28;20042;-64
2022/11/09 12:36:20;;;;;;;9.43;5.68;;;;;;;;;;4932547;28;20321;-64
2022/11/09 12:39:06;;;;;;;9.45;6.03;;;;;;;;;;4930649;28;20365;-64
2022/11/09 12:41:36;;;;;;;9.07;5.63;;;;;;;;;;4930858;28;20429;-64
2022/11/09 12:44:21;;;;;;;12.38;5.82;;;;;;;;;;4930914;28;20488;-64
2022/11/09 12:47:17;;;;;;;16.33;5.95;;;;;;;;;;4930893;28;20539;-63
2022/11/09 12:49:45;;;;;;;11.07;5.50;;;;;;;;;;4922506;28;20442;-64
2022/11/09 12:52:15;;;;;;;9.50;5.00;;;;;;;;;;4932846;28;20353;-63
2022/11/09 12:54:48;;;;;;;9.63;5.03;;;;;;;;;;4932732;28;20417;-64
2022/11/09 12:57:28;;;;;;;10.38;5.45;;;;;;;;;;4931769;28;20347;-64
2022/11/09 12:59:57;;;;;;;8.13;4.32;;;;;;;;;;4930363;28;20329;-64
2022/11/09 13:02:36;;;;;;;11.18;5.60;;;;;;;;;;4931735;28;20434;-63
2022/11/09 13:05:30;;;;;;;10.77;5.50;;;;;;;;;;4931668;28;20089;-63
2022/11/09 13:07:59;;;;;;;8.52;4.90;;;;;;;;;;4930333;28;20458;-63
2022/11/09 13:10:33;;;;;;;10.98;5.68;;;;;;;;;;4931075;28;20379;-63
2022/11/09 13:13:02;;;;;;;9.65;5.45;;;;;;;;;;4930126;28;20440;-64
2022/11/09 13:15:31;;;;;;;11.18;5.68;;;;;;;;;;4933384;28;20056;-63
2022/11/09 13:18:01;;;;;;;8.20;4.95;;;;;;;;;;4930573;28;20445;-64
2022/11/09 13:20:45;;;;;;;9.35;5.25;;;;;;;;;;4931689;28;20347;-64
2022/11/09 13:23:31;;;;;;;8.77;4.82;;;;;;;;;;4929944;28;20034;-63
2022/11/09 13:25:57;;;;;;;7.93;5.15;;;;;;;;;;4932521;28;20369;-63
2022/11/09 13:28:29;;;;;;;9.60;5.32;;;;;;;;;;4932012;28;20052;-64
2022/11/09 13:31:03;;;;;;;9.18;5.10;;;;;;;;;;4931397;28;20445;-63
2022/11/09 13:33:32;;;;;;;10.98;5.00;;;;;;;;;;4931034;28;20100;-63
2022/11/09 13:36:07;;;;;;;11.77;5.40;;;;;;;;;;4931829;28;20508;-63
2022/11/09 13:38:34;;;;;;;6.78;4.40;;;;;;;;;;4930807;28;20512;-64
2022/11/09 13:41:02;;;;;;;9.38;5.15;;;;;;;;;;4933179;28;20433;-63
2022/11/09 13:43:39;;;;;;;10.48;5.45;;;;;;;;;;4931475;28;20461;-63
2022/11/09 13:46:30;;;;;;;9.40;5.13;;;;;;;;;;4929456;28;20436;-64
2022/11/09 13:48:56;;;;;;;9.32;4.95;;;;;;;;;;4930254;28;20429;-63
2022/11/09 13:51:34;;;;;;;9.20;4.93;;;;;;;;;;4930827;28;20502;-64
2022/11/09 13:54:02;;;;;;;10.20;5.20;;;;;;;;;;4930549;28;20113;-64
2022/11/09 13:56:36;;;;;;;12.68;6.63;;;;;;;;;;4930891;28;21090;-64
2022/11/09 13:59:26;;;;;;;9.75;4.82;;;;;;;;;;4929994;28;20428;-63
2022/11/09 14:01:58;;;;;;;9.00;5.38;;;;;;;;;;4929868;28;20421;-64
2022/11/09 14:04:34;;;;;;;7.32;4.65;;;;;;;;;;4930506;28;20491;-63
2022/11/09 14:07:27;;;;;;;8.23;5.47;;;;;;;;;;4932013;28;20038;-63
2022/11/09 14:10:15;;;;;;;10.98;4.35;;;;;;;;;;4930169;28;20117;-63
2022/11/09 14:13:04;;;;;;;7.60;4.77;;;;;;;;;;4928162;28;20101;-63
2022/11/09 14:16:04;;;;;;;11.00;4.82;;;;;;;;;;4929160;28;20409;-63
2022/11/09 14:18:41;;;;;;;7.70;4.60;;;;;;;;;;4931682;28;20450;-64
2022/11/09 14:21:31;;;;;;;8.25;5.25;;;;;;;;;;4931654;28;20425;-63
2022/11/09 14:24:11;;;;;;;10.57;5.00;;;;;;;;;;4929801;28;20388;-63
2022/11/09 14:26:36;;;;;;;6.38;3.88;;;;;;;;;;4930105;28;20509;-64
2022/11/09 14:29:22;;;;;;;8.95;4.95;;;;;;;;;;4932833;28;20437;-64
2022/11/09 14:31:47;;;;;;;9.45;5.20;;;;;;;;;;4929624;28;20346;-63
2022/11/09 14:34:15;;;;;;;7.68;4.53;;;;;;;;;;4929831;28;20026;-64
2022/11/09 14:36:41;;;;;;;10.30;4.78;;;;;;;;;;4929788;28;20409;-64
2022/11/09 14:39:22;;;;;;;9.32;4.57;;;;;;;;;;4930559;28;20503;-64
2022/11/09 14:41:49;;;;;;;9.70;5.20;;;;;;;;;;4930150;28;20488;-63
2022/11/09 14:44:34;;;;;;;8.25;4.68;;;;;;;;;;4928257;28;20084;-64
2022/11/09 14:47:01;;;;;;;9.52;5.55;;;;;;;;;;4928512;28;20448;-64
2022/11/09 14:49:27;;;;;;;10.48;5.22;;;;;;;;;;4928169;28;20057;-64
2022/11/09 14:51:53;;;;;;;9.43;5.18;;;;;;;;;;4928544;28;20031;-64